Latest Weather Observations for Launceston

IDT60801

Issued at 8:02 pm EDT Saturday 16 December 2017 (issued every 30 minutes, with the page automatically refreshed every 10 minutes)

About weather observations | Map of weather stations | Latest weather observations for TAS | Other Formats
Station Details ID: 091237 Name: LAUNCESTON (TI TREE BEND) Lat: -41.42 Lon: 147.12 Height: 5.0 m
Data from the previous 72 hours. | See also: Recent months at Launceston
Date/Time
EDT
Temp
°C
App
Temp
°C
Dew
Point
°C
Rel
Hum
%
Delta-T
°C
Wind Press
QNH
hPa
Press
MSL
hPa
Rain since
9am
mm
Dir  Spd
km/h
Gust
km/h
Spd
kts
Gust
kts
16/08:00pm 19.8 18.2 14.0 69 3.3 NNW 15 24 8 13 - - 0.0
16/07:30pm 20.6 18.3 14.0 66 3.8 NNW 19 28 10 15 - - 0.0
16/07:00pm 20.4 18.3 13.6 65 3.9 NW 17 24 9 13 - - 0.0
16/06:30pm 21.4 18.8 13.1 59 4.7 NNW 19 26 10 14 - - 0.0
16/06:00pm 21.0 18.3 12.9 60 4.6 NNW 19 26 10 14 - - 0.0
16/05:30pm 21.9 18.8 13.5 59 4.8 NNW 22 33 12 18 - - 0.0
16/05:00pm 22.1 19.5 13.7 59 4.9 NNW 20 33 11 18 - - 0.0
16/04:30pm 22.3 19.5 14.2 60 4.7 NNW 22 32 12 17 - - 0.0
16/04:00pm 21.4 18.6 13.3 60 4.6 NNW 20 33 11 18 - - 0.0
16/03:30pm 21.5 17.6 13.4 60 4.7 NNW 26 39 14 21 - - 0.0
16/03:00pm 20.9 16.8 12.8 60 4.6 NNW 26 35 14 19 - - 0.0
16/02:30pm 21.1 17.1 13.0 60 4.6 NNW 26 35 14 19 - - 0.0
16/02:00pm 21.0 17.7 12.7 59 4.7 NNW 22 32 12 17 - - 0.0
16/01:30pm 21.2 17.3 13.4 61 4.5 NNW 26 39 14 21 - - 0.0
16/01:00pm 20.9 17.8 12.3 58 4.8 NNW 20 30 11 16 - - 0.0
16/12:30pm 20.6 16.8 11.2 55 5.2 NNW 22 33 12 18 - - 0.0
16/12:00pm 20.3 17.0 11.5 57 4.9 NNW 20 30 11 16 - - 0.0
16/11:30am 20.2 17.2 11.9 59 4.6 NW 19 30 10 16 - - 0.0
16/11:00am 18.9 16.4 12.4 66 3.6 NNW 17 28 9 15 - - 0.0
16/10:30am 19.0 15.2 11.3 61 4.2 NNW 22 32 12 17 - - 0.0
16/10:00am 18.6 15.5 12.1 66 3.6 NNW 20 30 11 16 - - 0.0
16/09:30am 18.3 14.9 12.5 69 3.2 NNW 22 33 12 18 - - 0.0
16/09:00am 17.6 14.1 12.3 71 2.9 NNW 22 32 12 17 - - 0.0
16/08:30am 16.9 13.3 12.0 73 2.7 NNW 22 32 12 17 - - 0.0
16/08:00am 16.1 13.5 12.1 77 2.2 NNW 17 26 9 14 - - 0.0
16/07:30am 15.7 12.9 11.5 76 2.3 NNW 17 26 9 14 - - 0.0
16/07:00am 14.8 13.7 11.8 82 1.6 NW 9 15 5 8 - - 0.0
16/06:30am 13.6 12.4 11.7 88 1.0 NW 9 13 5 7 - - 0.0
16/06:00am 13.7 12.9 11.8 88 1.0 NW 7 9 4 5 - - 0.0
16/05:30am 14.0 12.5 11.9 87 1.1 NW 11 15 6 8 - - 0.0
16/05:00am 14.9 13.4 11.9 82 1.6 NW 11 15 6 8 - - 0.0
16/04:30am 15.1 14.4 11.9 81 1.7 WNW 7 11 4 6 - - 0.0
16/04:00am 15.1 14.4 11.9 81 1.7 NW 7 11 4 6 - - 0.0
16/03:30am 15.0 14.1 11.4 79 1.9 NW 7 11 4 6 - - 0.0
16/03:00am 14.7 13.7 11.1 79 1.9 WNW 7 11 4 6 - - 0.0
16/02:30am 14.0 12.9 10.6 80 1.8 WNW 7 11 4 6 - - 0.0
16/02:00am 13.8 12.7 10.8 82 1.6 NW 7 13 4 7 - - 0.0
16/01:30am 14.2 12.8 11.0 81 1.7 NW 9 13 5 7 - - 0.0
16/01:00am 14.2 12.5 11.2 82 1.6 NW 11 15 6 8 - - 0.0
16/12:30am 14.5 13.3 11.5 82 1.6 NW 9 13 5 7 - - 0.0
16/12:00am 14.5 13.4 11.8 84 1.5 NNW 9 13 5 7 - - 0.0
 
Date/Time
EDT
Temp
°C
App
Temp
°C
Dew
Point
°C
Rel
Hum
%
Delta-T
°C
Wind Press
QNH
hPa
Press
MSL
hPa
Rain since
9am
mm
Dir  Spd
km/h
Gust
km/h
Spd
kts
Gust
kts
15/11:30pm 15.4 13.8 11.6 78 2.0 NNW 11 17 6 9 - - 0.0
15/11:00pm 15.9 13.1 11.5 75 2.4 N 17 24 9 13 - - 0.0
15/10:30pm 15.9 12.8 11.5 75 2.4 N 19 30 10 16 - - 0.0
15/10:00pm 15.9 13.5 11.3 74 2.5 NNW 15 22 8 12 - - 0.0
15/09:30pm 16.1 13.0 11.5 74 2.5 NNW 19 30 10 16 - - 0.0
15/09:00pm 16.4 13.0 11.3 72 2.7 NNW 20 30 11 16 - - 0.0
15/08:30pm 16.6 12.8 11.3 71 2.9 NNW 22 30 12 16 - - 0.0
15/08:00pm 17.1 12.9 11.2 68 3.2 NNW 24 35 13 19 - - 0.0
15/07:30pm 17.7 13.1 11.0 65 3.6 NNW 26 39 14 21 - - 0.0
15/07:00pm 18.2 13.5 10.8 62 4.0 NNW 26 39 14 21 - - 0.0
15/06:30pm 18.6 14.3 12.1 66 3.6 NNW 26 39 14 21 - - 0.0
15/06:00pm 18.5 13.6 11.3 63 3.9 NNW 28 37 15 20 - - 0.0
15/05:30pm 18.9 13.3 11.5 62 4.1 NNW 32 41 17 22 - - 0.0
15/05:00pm 19.2 13.8 11.0 59 4.5 NNW 30 46 16 25 - - 0.0
15/04:46pm 19.5 14.1 11.0 58 4.6 NNW 30 50 16 27 - - 0.0
15/04:30pm 19.9 15.3 10.9 56 4.9 NNW 26 39 14 21 - - 0.0
15/04:00pm 20.2 16.1 11.4 57 4.8 NNW 24 39 13 21 - - 0.0
15/03:30pm 19.9 15.0 9.8 52 5.4 NNW 26 37 14 20 - - 0.0
15/03:00pm 19.7 14.2 9.0 50 5.6 NNW 28 41 15 22 - - 0.0
15/02:30pm 19.7 14.6 9.3 51 5.5 NNW 26 39 14 21 - - 0.0
15/02:00pm 19.7 15.2 8.7 49 5.7 NNW 22 33 12 18 - - 0.0
15/01:30pm 19.6 15.3 9.2 51 5.5 N 22 32 12 17 - - 0.0
15/01:00pm 19.6 15.1 8.6 49 5.7 NNW 22 35 12 19 - - 0.0
15/12:30pm 19.2 14.2 7.9 48 5.8 NNW 24 35 13 19 - - 0.0
15/12:00pm 19.1 13.9 7.2 46 6.0 N 24 33 13 18 - - 0.0
15/11:30am 19.2 14.8 7.3 46 6.0 NNW 20 32 11 17 - - 0.0
15/11:00am 18.7 14.3 7.2 47 5.8 NNW 20 37 11 20 - - 0.0
15/10:30am 18.6 16.1 8.3 51 5.3 NW 11 19 6 10 - - 0.0
15/10:00am 17.2 13.9 6.4 49 5.3 NW 13 19 7 10 - - 0.0
15/09:30am 16.7 14.6 8.1 57 4.4 NW 9 15 5 8 - - 0.0
15/09:00am 15.9 13.8 8.2 60 3.9 NNW 9 15 5 8 - - 0.0
15/08:30am 14.8 13.2 8.7 67 3.1 NW 7 9 4 5 - - 0.0
15/08:00am 14.0 12.3 10.0 77 2.1 NNW 9 11 5 6 - - 0.0
15/07:30am 13.0 11.8 9.4 79 1.8 NNW 6 11 3 6 - - 0.0
15/07:00am 12.1 11.5 9.1 82 1.5 NW 2 4 1 2 - - 0.0
15/06:30am 11.4 10.5 9.1 86 1.1 NNE 4 6 2 3 - - 0.0
15/06:00am 10.3 9.6 8.6 89 0.8 NW 2 4 1 2 - - 0.0
15/05:30am 11.1 9.9 9.4 89 0.9 N 6 6 3 3 - - 0.0
15/05:00am 11.0 10.4 9.1 88 0.9 NW 2 6 1 3 - - 0.0
15/04:30am 10.9 9.8 8.5 85 1.2 W 4 6 2 3 - - 0.0
15/04:00am 11.4 10.4 9.0 85 1.2 WNW 4 4 2 2 - - 0.0
15/03:30am 11.9 10.6 9.3 84 1.3 NNW 6 7 3 4 - - 0.0
15/03:00am 12.4 11.1 9.1 80 1.7 NW 6 7 3 4 - - 0.0
15/02:30am 12.8 11.3 9.3 79 1.8 NW 7 9 4 5 - - 0.0
15/02:00am 12.9 11.3 8.8 76 2.1 NW 7 11 4 6 - - 0.0
15/01:30am 13.4 11.9 9.1 75 2.2 NW 7 11 4 6 - - 0.0
15/01:00am 14.1 12.4 8.3 68 2.9 NNW 7 9 4 5 - - 0.0
15/12:30am 14.6 12.4 7.9 64 3.3 NW 9 11 5 6 - - 0.0
15/12:00am 14.9 12.7 7.7 62 3.6 NW 9 13 5 7 - - 0.0
 
Date/Time
EDT
Temp
°C
App
Temp
°C
Dew
Point
°C
Rel
Hum
%
Delta-T
°C
Wind Press
QNH
hPa
Press
MSL
hPa
Rain since
9am
mm
Dir  Spd
km/h
Gust
km/h
Spd
kts
Gust
kts
14/11:30pm 15.5 13.6 7.5 59 4.0 WNW 7 13 4 7 - - 0.0
14/11:00pm 15.7 13.7 7.2 57 4.2 NW 7 11 4 6 - - 0.0
14/10:30pm 16.3 13.8 6.7 53 4.7 WNW 9 15 5 8 - - 0.0
14/10:00pm 16.8 14.2 6.0 49 5.2 WNW 9 15 5 8 - - 0.0
14/09:30pm 17.5 15.0 4.8 43 6.1 WNW 7 15 4 8 - - 0.0
14/09:00pm 18.3 14.1 3.8 38 6.8 WNW 15 24 8 13 - - 0.0
14/08:30pm 19.2 15.6 3.0 34 7.5 NW 11 20 6 11 - - 0.0
14/08:00pm 20.1 15.6 2.0 30 8.3 WNW 15 26 8 14 - - 0.0
14/07:30pm 21.1 15.6 1.9 28 8.9 WNW 20 32 11 17 - - 0.0
14/07:00pm 22.4 17.9 4.0 30 8.9 WNW 17 26 9 14 - - 0.0
14/06:30pm 22.2 17.9 3.3 29 9.1 WNW 15 24 8 13 - - 0.0
14/06:00pm 23.7 18.9 4.6 29 9.5 WNW 19 32 10 17 - - 0.0
14/05:30pm 22.8 17.4 4.3 30 9.1 WNW 22 33 12 18 - - 0.0
14/05:00pm 23.8 17.9 3.7 27 9.8 NW 24 41 13 22 - - 0.0
14/04:30pm 25.2 20.4 7.3 32 9.4 WNW 22 35 12 19 - - 0.0
14/04:00pm 24.8 19.2 5.6 29 9.8 WNW 24 43 13 23 - - 0.0
14/03:30pm 24.7 19.7 12.3 46 7.1 NNW 30 44 16 24 - - 0.0
14/03:00pm 25.1 19.5 12.0 44 7.5 NNW 33 46 18 25 - - 0.0
14/02:30pm 25.0 20.0 12.2 44 7.3 NNW 30 43 16 23 - - 0.0
14/02:00pm 25.9 21.4 12.7 44 7.7 NNW 28 39 15 21 - - 0.0
14/01:30pm 25.7 21.7 15.1 52 6.4 NNW 30 43 16 23 - - 0.0
14/01:00pm 25.4 21.7 15.1 53 6.2 NNW 28 41 15 22 - - 0.0
14/12:30pm 25.8 23.3 17.2 59 5.4 NNW 26 43 14 23 - - 0.0
14/12:00pm 25.6 23.5 16.2 56 5.8 NNW 22 33 12 18 - - 0.0
14/11:30am 25.4 22.5 15.1 53 6.2 NNW 24 33 13 18 - - 0.0
14/11:00am 25.6 23.2 15.3 53 6.2 NNW 22 35 12 19 - - 0.0
14/10:30am 25.1 22.5 14.9 53 6.1 NNW 22 33 12 18 - - 0.0
14/10:00am 24.5 21.3 14.3 53 6.0 NNW 24 37 13 20 - - 0.0
14/09:30am 23.8 22.3 16.3 63 4.6 NNW 19 26 10 14 - - 0.0
14/09:00am 23.1 21.7 16.6 67 4.0 NNW 19 28 10 15 - - 0.0
14/08:30am 22.1 20.2 15.7 67 3.8 NNW 20 30 11 16 - - 0.0
14/08:00am 21.7 19.8 15.8 69 3.5 NNW 20 30 11 16 - - 0.0
14/07:30am 20.7 19.9 16.1 75 2.8 NNW 15 20 8 11 - - 0.0
14/07:00am 19.2 19.1 16.1 82 1.8 NNW 11 17 6 9 - - 0.0
14/06:30am 18.8 18.7 15.9 83 1.7 NNW 11 15 6 8 - - 0.0
14/06:00am 18.7 17.7 15.6 82 1.8 NNW 15 19 8 10 - - 0.0
14/05:30am 19.6 20.2 15.3 76 2.5 WNW 6 7 3 4 - - 0.0
14/05:00am 19.8 21.0 14.8 73 2.9 S 2 7 1 4 - - 0.0
14/04:30am 20.3 20.2 14.9 71 3.2 SSW 9 13 5 7 - - 0.0
14/04:00am 20.2 20.6 15.2 73 2.9 SSE 7 11 4 6 - - 0.0
14/03:30am 20.5 20.9 15.3 72 3.1 NE 7 11 4 6 - - 0.0
14/03:00am 21.4 21.6 14.6 65 4.0 NNW 7 11 4 6 - - 0.0
14/02:33am 20.3 20.6 16.1 77 2.5 WSW 9 39 5 21 - - 0.0
14/02:30am 19.0 20.8 16.4 85 1.6 SW 2 19 1 10 - - 0.0
14/02:00am 19.3 21.6 16.7 85 1.6 CALM 0 0 0 0 - - 0.0
14/01:30am 19.3 21.3 16.0 81 2.0 CALM 0 2 0 1 - - 0.0
14/01:00am 19.8 21.5 16.1 79 2.2 NNE 2 4 1 2 - - 0.0
14/12:30am 19.9 21.2 16.2 79 2.2 WNW 4 7 2 4 - - 0.0
14/12:00am 20.1 20.9 15.9 77 2.5 WNW 6 7 3 4 - - 0.0
 
Date/Time
EDT
Temp
°C
App
Temp
°C
Dew
Point
°C
Rel
Hum
%
Delta-T
°C
Wind Press
QNH
hPa
Press
MSL
hPa
Rain since
9am
mm
Dir  Spd
km/h
Gust
km/h
Spd
kts
Gust
kts
13/11:30pm 20.3 21.4 15.5 74 2.8 NW 4 6 2 3 - - 0.0
13/11:00pm 21.3 21.9 15.8 71 3.3 N 7 7 4 4 - - 0.0
13/10:30pm 22.1 22.6 15.0 64 4.2 NNW 6 9 3 5 - - 0.0
13/10:00pm 22.2 20.3 14.3 61 4.6 W 17 32 9 17 - - 0.0
13/09:30pm 21.0 21.2 14.2 65 4.0 NW 6 7 3 4 - - 0.0
13/09:00pm 20.9 21.4 14.1 65 3.9 NW 4 6 2 3 - - 0.0
13/08:30pm 22.9 21.7 11.6 49 6.3 WNW 9 13 5 7 - - 0.0

Other Formats:

Comma delimited format used in spreadsheet applications
http://www.bom.gov.au/fwo/IDT60801/IDT60801.94969.axf

JavaScript Object Notation format (JSON) in row-major order
http://www.bom.gov.au/fwo/IDT60801/IDT60801.94969.json